createdAt,value
2022-10-24T00:00:24.363Z,100567.44
2022-10-24T00:02:51.258Z,100577.13
2022-10-24T00:05:18.422Z,100579.56
2022-10-24T00:07:45.599Z,100581.06
2022-10-24T00:10:13.822Z,100576.34
2022-10-24T00:12:54.655Z,100573.06
2022-10-24T00:15:22.263Z,100568.59
2022-10-24T00:17:50.672Z,100572.81
2022-10-24T00:20:17.874Z,100565.09
2022-10-24T00:22:45.500Z,100567.97
2022-10-24T00:25:15.599Z,100566.72
2022-10-24T00:27:44.867Z,100568.50
2022-10-24T00:30:14.578Z,100565.16
2022-10-24T00:32:42.188Z,100582.16
2022-10-24T00:35:14.669Z,100584.09
2022-10-24T00:37:42.064Z,100584.81
2022-10-24T00:40:12.010Z,100571.88
2022-10-24T00:42:39.676Z,100557.56
2022-10-24T00:45:25.425Z,100563.66
2022-10-24T00:47:57.059Z,100562.59
2022-10-24T00:50:29.693Z,100566.41
2022-10-24T00:52:56.861Z,100561.34
2022-10-24T00:55:23.882Z,100558.25
2022-10-24T00:58:05.664Z,100563.75
2022-10-24T01:00:36.329Z,100563.94
2022-10-24T01:03:06.357Z,100566.78
2022-10-24T01:06:02.580Z,100568.44
2022-10-24T01:08:42.105Z,100553.81
2022-10-24T01:11:47.413Z,100553.53
2022-10-24T01:14:24.954Z,100546.47
2022-10-24T01:17:16.223Z,100548.63
2022-10-24T01:20:24.888Z,100555.37
2022-10-24T01:23:01.217Z,100560.75
2022-10-24T01:25:54.695Z,100558.22
2022-10-24T01:28:47.731Z,100545.13
2022-10-24T01:31:39.047Z,100541.41
2022-10-24T01:34:14.971Z,100534.66
2022-10-24T01:36:48.307Z,100529.44
2022-10-24T01:39:17.495Z,100536.13
2022-10-24T01:41:46.580Z,100534.56
2022-10-24T01:44:24.984Z,100525.53
2022-10-24T01:49:53.145Z,100511.37
2022-10-24T01:52:20.570Z,100506.22
2022-10-24T01:54:54.470Z,100519.50
2022-10-24T01:57:32.807Z,100516.56
2022-10-24T02:00:00.400Z,100524.41
2022-10-24T02:02:46.940Z,100516.88
2022-10-24T02:05:29.519Z,100512.66
2022-10-24T02:08:02.658Z,100515.94
2022-10-24T02:10:36.463Z,100519.50
2022-10-24T02:13:13.161Z,100507.81
2022-10-24T02:15:46.490Z,100506.88
2022-10-24T02:18:13.570Z,100505.41
2022-10-24T02:20:47.703Z,100509.22
2022-10-24T02:23:18.512Z,100502.47
2022-10-24T02:25:50.975Z,100497.47
2022-10-24T02:28:24.062Z,100496.34
2022-10-24T02:30:59.131Z,100497.38
2022-10-24T02:33:30.032Z,100496.25
2022-10-24T02:35:59.168Z,100498.88
2022-10-24T02:38:37.460Z,100490.66
2022-10-24T02:41:06.505Z,100502.13
2022-10-24T02:43:40.191Z,100493.91
2022-10-24T02:46:10.884Z,100497.91
2022-10-24T03:32:51.445Z,100502.06
2022-10-24T03:35:19.251Z,100504.91
2022-10-24T03:37:46.500Z,100499.72
2022-10-24T03:40:13.482Z,100504.47
2022-10-24T03:42:44.019Z,100506.78
2022-10-24T03:45:14.404Z,100507.75
2022-10-24T03:47:43.586Z,100512.44
2022-10-24T03:50:10.515Z,100510.66
2022-10-24T03:52:38.597Z,100506.28
2022-10-24T03:55:05.867Z,100505.28
2022-10-24T03:57:33.180Z,100513.62
2022-10-24T04:37:17.728Z,100556.53
2022-10-24T04:39:55.997Z,100564.94
2022-10-24T04:42:27.672Z,100556.09
2022-10-24T04:45:04.030Z,100544.34
2022-10-24T04:47:30.890Z,100551.75
2022-10-24T04:49:57.835Z,100569.37
2022-10-24T04:52:24.718Z,100569.44
2022-10-24T04:54:51.549Z,100556.81
2022-10-24T04:57:18.502Z,100560.03
2022-10-24T04:59:45.640Z,100550.38
2022-10-24T05:02:12.550Z,100550.25
2022-10-24T05:04:39.498Z,100542.25
2022-10-24T05:07:07.964Z,100540.06
2022-10-24T05:09:35.533Z,100539.16
2022-10-24T05:12:03.379Z,100538.28
2022-10-24T05:14:31.822Z,100531.28
2022-10-24T05:17:17.126Z,100523.88
2022-10-24T05:20:04.666Z,100527.56
2022-10-24T05:22:36.270Z,100549.00
2022-10-24T05:25:03.286Z,100555.16
2022-10-24T05:27:30.950Z,100542.72
2022-10-24T05:30:02.521Z,100545.34
2022-10-24T05:32:35.989Z,100554.22
2022-10-24T05:35:20.728Z,100571.84
2022-10-24T05:38:08.326Z,100583.91
2022-10-24T05:40:39.161Z,100585.47
2022-10-24T05:43:07.500Z,100575.03
2022-10-24T05:45:36.821Z,100569.44
2022-10-24T05:48:05.428Z,100579.37
2022-10-24T05:50:35.158Z,100567.91
2022-10-24T05:53:07.248Z,100583.09
2022-10-24T05:55:35.592Z,100580.31
2022-10-24T06:25:28.520Z,100603.44
2022-10-24T06:27:56.256Z,100607.84
2022-10-24T06:30:45.188Z,100614.44
2022-10-24T06:33:42.690Z,100619.03
2022-10-24T06:39:39.832Z,100634.06
2022-10-24T07:45:07.562Z,100674.59
2022-10-24T07:48:13.478Z,100673.66
2022-10-24T07:51:07.665Z,100684.47
2022-10-24T07:53:46.686Z,100688.13
2022-10-24T07:56:39.348Z,100697.63
2022-10-24T07:59:58.456Z,100712.94
2022-10-24T08:02:40.675Z,100721.63
2022-10-24T08:05:25.966Z,100722.47
2022-10-24T08:08:40.462Z,100723.91
2022-10-24T08:51:53.943Z,100662.56
2022-10-24T08:55:47.702Z,100671.03
2022-10-24T08:58:25.352Z,100674.13
2022-10-24T09:02:22.728Z,100679.47
2022-10-24T09:19:42.097Z,100684.47
2022-10-24T09:39:37.863Z,100677.31
2022-10-24T09:52:43.607Z,100688.00
2022-10-24T09:55:54.439Z,100696.47
2022-10-24T10:02:09.215Z,100694.69
2022-10-24T10:24:06.371Z,100708.78
2022-10-24T10:30:45.451Z,100692.25
2022-10-24T10:37:20.430Z,100687.63
2022-10-24T10:40:15.373Z,100681.88
2022-10-24T10:43:21.399Z,100674.94
2022-10-24T10:46:36.529Z,100676.53
2022-10-24T10:52:42.906Z,100673.28
2022-10-24T10:55:46.700Z,100664.91
2022-10-24T10:58:31.458Z,100678.28
2022-10-24T11:01:17.329Z,100673.25
2022-10-24T11:07:22.410Z,100658.81
2022-10-24T11:10:06.582Z,100657.03
2022-10-24T11:15:21.807Z,100658.25
2022-10-24T11:17:58.590Z,100659.72
2022-10-24T11:20:57.571Z,100656.63
2022-10-24T11:23:46.535Z,100648.41
2022-10-24T11:29:08.039Z,100643.31
2022-10-24T11:35:21.467Z,100621.78
2022-10-24T11:38:09.037Z,100610.97
2022-10-24T11:40:38.487Z,100592.94
2022-10-24T11:43:11.585Z,100589.66
2022-10-24T11:45:58.476Z,100585.97
2022-10-24T11:48:28.492Z,100582.00
2022-10-24T11:51:22.536Z,100580.50
2022-10-24T11:53:55.830Z,100573.38
2022-10-24T11:56:31.979Z,100567.72
2022-10-24T11:59:04.379Z,100558.91
2022-10-24T12:02:10.133Z,100559.78
2022-10-24T12:04:55.292Z,100562.47
2022-10-24T12:07:40.966Z,100562.25
2022-10-24T12:10:21.338Z,100556.88
2022-10-24T12:13:09.955Z,100545.53
2022-10-24T12:18:43.639Z,100540.94
2022-10-24T12:21:15.434Z,100541.50
2022-10-24T12:23:58.893Z,100536.47
2022-10-24T12:26:36.067Z,100531.63
2022-10-24T12:29:06.397Z,100521.41
2022-10-24T12:31:37.670Z,100516.06
2022-10-24T12:34:17.007Z,100512.38
2022-10-24T12:37:03.071Z,100497.44
2022-10-24T12:39:37.297Z,100488.69
2022-10-24T12:42:17.552Z,100483.12
2022-10-24T12:44:45.334Z,100478.47
2022-10-24T12:47:32.001Z,100480.87
2022-10-24T12:50:22.134Z,100478.88
2022-10-24T12:53:12.105Z,100476.69
2022-10-24T12:55:39.853Z,100467.41
2022-10-24T12:58:26.665Z,100459.88
2022-10-24T13:01:20.631Z,100462.81
2022-10-24T13:04:15.120Z,100458.41
2022-10-24T13:07:02.133Z,100453.69
2022-10-24T13:09:29.117Z,100455.75
2022-10-24T13:11:56.545Z,100447.06
2022-10-24T13:14:56.326Z,100443.72
2022-10-24T13:17:32.223Z,100443.50
2022-10-24T13:20:07.405Z,100436.16
2022-10-24T13:22:45.143Z,100433.91
2022-10-24T13:25:44.017Z,100440.34
2022-10-24T13:31:32.827Z,100444.00
2022-10-24T13:38:09.520Z,100437.22
2022-10-24T13:40:37.107Z,100431.94
2022-10-24T13:46:42.501Z,100423.72
2022-10-24T13:52:33.334Z,100417.84
2022-10-24T13:55:04.134Z,100412.78
2022-10-24T13:57:56.647Z,100417.06
2022-10-24T14:00:41.107Z,100410.41
2022-10-24T14:03:17.612Z,100415.66
2022-10-24T14:06:30.101Z,100411.81
2022-10-24T14:09:07.446Z,100412.34
2022-10-24T14:11:49.923Z,100411.56
2022-10-24T14:14:40.169Z,100415.63
2022-10-24T14:18:07.360Z,100416.44
2022-10-24T14:20:35.839Z,100412.31
2022-10-24T14:23:31.726Z,100402.31
2022-10-24T14:26:20.205Z,100410.19
2022-10-24T14:29:07.496Z,100398.81
2022-10-24T14:31:36.000Z,100398.41
2022-10-24T14:34:06.371Z,100404.75
2022-10-24T14:36:37.242Z,100408.88
2022-10-24T14:39:07.380Z,100398.53
2022-10-24T14:41:40.280Z,100401.41
2022-10-24T14:44:14.686Z,100398.72
2022-10-24T14:47:00.150Z,100400.44
2022-10-24T14:49:49.766Z,100398.56
2022-10-24T14:52:49.013Z,100403.81
2022-10-24T14:55:35.637Z,100400.50
2022-10-24T14:58:20.099Z,100400.63
2022-10-24T15:00:46.953Z,100391.69
2022-10-24T15:03:13.857Z,100389.87
2022-10-24T15:05:41.050Z,100390.78
2022-10-24T15:08:21.959Z,100390.06
2022-10-24T15:10:49.437Z,100394.91
2022-10-24T15:13:18.315Z,100381.72
2022-10-24T15:15:55.869Z,100385.03
2022-10-24T15:18:24.621Z,100380.16
2022-10-24T15:20:52.922Z,100386.06
2022-10-24T15:23:26.843Z,100395.56
2022-10-24T15:26:00.460Z,100384.91
2022-10-24T15:28:45.670Z,100388.56
2022-10-24T15:31:14.331Z,100384.19
2022-10-24T15:33:41.366Z,100374.31
2022-10-24T15:36:16.204Z,100369.75
2022-10-24T15:38:43.229Z,100369.94
2022-10-24T15:41:10.352Z,100367.22
2022-10-24T15:43:37.104Z,100357.97
2022-10-24T15:46:03.935Z,100362.31
2022-10-24T15:48:30.919Z,100366.44
2022-10-24T15:50:58.526Z,100370.84
2022-10-24T15:53:25.342Z,100368.38
2022-10-24T15:55:52.297Z,100372.34
2022-10-24T15:58:19.183Z,100371.84
2022-10-24T16:00:46.095Z,100365.28
2022-10-24T16:03:15.932Z,100360.75
2022-10-24T16:05:44.907Z,100360.75
2022-10-24T16:08:13.619Z,100365.66
2022-10-24T16:11:27.062Z,100363.16
2022-10-24T16:14:21.762Z,100356.50
2022-10-24T16:17:32.833Z,100358.66
2022-10-24T16:32:24.837Z,100367.03
2022-10-24T16:34:52.789Z,100359.31
2022-10-24T16:37:20.551Z,100362.00
2022-10-24T16:39:47.438Z,100360.59
2022-10-24T16:42:14.602Z,100362.59
2022-10-24T16:44:41.460Z,100357.66
2022-10-24T16:47:10.276Z,100350.19
2022-10-24T16:49:37.117Z,100350.19
2022-10-24T16:52:03.964Z,100350.78
2022-10-24T16:54:32.073Z,100363.25
2022-10-24T16:56:58.863Z,100371.41
2022-10-24T16:59:26.555Z,100351.53
2022-10-24T17:01:59.874Z,100363.78
2022-10-24T17:04:30.258Z,100356.75
2022-10-24T17:07:00.445Z,100344.34
2022-10-24T17:09:27.339Z,100348.34
2022-10-24T17:11:56.659Z,100358.28
2022-10-24T17:14:23.439Z,100361.06
2022-10-24T17:16:50.385Z,100368.50
2022-10-24T17:19:17.944Z,100368.06
2022-10-24T17:21:47.154Z,100366.84
2022-10-24T17:24:14.761Z,100369.63
2022-10-24T17:26:42.301Z,100377.66
2022-10-24T17:29:12.883Z,100371.53
2022-10-24T17:31:39.754Z,100373.94
2022-10-24T17:34:06.836Z,100380.63
2022-10-24T17:36:35.369Z,100377.84
2022-10-24T17:39:09.275Z,100383.31
2022-10-24T17:41:39.485Z,100382.53
2022-10-24T17:44:06.567Z,100375.66
2022-10-24T17:46:33.495Z,100373.66
2022-10-24T17:49:00.293Z,100355.03
2022-10-24T17:51:27.785Z,100359.81
2022-10-24T17:53:54.580Z,100369.41
2022-10-24T17:56:24.786Z,100371.44
2022-10-24T17:58:52.708Z,100375.91
2022-10-24T18:01:22.979Z,100377.56
2022-10-24T18:03:50.223Z,100381.81
2022-10-24T18:06:17.514Z,100377.25
2022-10-24T18:08:44.621Z,100381.47
2022-10-24T18:11:13.082Z,100378.78
2022-10-24T18:13:40.113Z,100387.41
2022-10-24T18:16:07.955Z,100385.63
2022-10-24T18:18:35.341Z,100383.94
2022-10-24T18:21:06.272Z,100378.94
2022-10-24T18:23:34.530Z,100374.94
2022-10-24T18:26:06.493Z,100372.78
2022-10-24T18:28:36.521Z,100377.13
2022-10-24T18:31:07.837Z,100381.97
2022-10-24T18:33:34.729Z,100388.59
2022-10-24T18:36:12.203Z,100393.56
2022-10-24T18:38:40.351Z,100388.12
2022-10-24T18:41:25.787Z,100397.03
2022-10-24T18:43:52.730Z,100390.38
2022-10-24T18:46:20.513Z,100391.88
2022-10-24T18:48:47.840Z,100388.09
2022-10-24T18:59:04.914Z,100399.41
2022-10-24T19:11:56.514Z,100399.47
2022-10-24T19:14:24.733Z,100395.63
2022-10-24T19:17:01.737Z,100396.56
2022-10-24T19:19:30.538Z,100395.25
2022-10-24T19:21:57.504Z,100397.16
2022-10-24T19:24:24.345Z,100400.97
2022-10-24T19:26:51.255Z,100409.84
2022-10-24T19:29:18.227Z,100397.66
2022-10-24T19:31:45.886Z,100403.19
2022-10-24T19:34:13.334Z,100388.88
2022-10-24T19:36:40.221Z,100386.97
2022-10-24T19:39:07.388Z,100394.06
2022-10-24T19:41:34.252Z,100402.78
2022-10-24T19:44:01.495Z,100409.16
2022-10-24T19:46:28.519Z,100408.41
2022-10-24T19:48:55.655Z,100410.97
2022-10-24T19:51:23.541Z,100409.25
2022-10-24T19:53:52.075Z,100413.78
2022-10-24T19:56:23.900Z,100423.25
2022-10-24T19:58:52.659Z,100429.69
2022-10-24T20:01:21.519Z,100429.91
2022-10-24T20:03:49.532Z,100429.31
2022-10-24T20:06:17.166Z,100422.16
2022-10-24T20:08:46.611Z,100428.84
2022-10-24T20:11:20.952Z,100441.03
2022-10-24T20:13:48.380Z,100431.72
2022-10-24T20:16:15.462Z,100451.41
2022-10-24T20:18:45.628Z,100461.44
2022-10-24T20:21:13.621Z,100491.91
2022-10-24T20:23:41.946Z,100499.22
2022-10-24T20:26:13.577Z,100494.97
2022-10-24T20:28:43.478Z,100499.72
2022-10-24T20:31:20.653Z,100507.44
2022-10-24T20:33:48.062Z,100509.38
2022-10-24T20:36:14.863Z,100505.91
2022-10-24T20:38:41.866Z,100505.44
2022-10-24T20:41:08.783Z,100501.78
2022-10-24T20:43:35.760Z,100503.28
2022-10-24T20:46:06.406Z,100509.72
2022-10-24T20:48:34.234Z,100507.56
2022-10-24T20:51:06.952Z,100517.44
2022-10-24T20:53:33.804Z,100527.16
2022-10-24T20:56:27.065Z,100531.87
2022-10-24T20:58:55.240Z,100532.63
2022-10-24T21:01:23.839Z,100533.06
2022-10-24T21:03:51.398Z,100538.28
2022-10-24T21:06:28.809Z,100543.69
2022-10-24T21:08:57.342Z,100546.03
2022-10-24T21:11:26.438Z,100561.97
2022-10-24T21:13:54.534Z,100548.97
2022-10-24T21:16:21.798Z,100555.81
2022-10-24T21:18:48.771Z,100537.91
2022-10-24T21:21:16.261Z,100540.22
2022-10-24T21:23:43.139Z,100544.50
2022-10-24T21:26:13.738Z,100543.28
2022-10-24T21:28:40.752Z,100536.97
2022-10-24T21:31:09.296Z,100539.94
2022-10-24T21:33:36.617Z,100538.25
2022-10-24T21:36:07.434Z,100544.69
2022-10-24T21:38:34.700Z,100548.87
2022-10-24T21:41:02.806Z,100538.66
2022-10-24T21:43:31.157Z,100533.06
2022-10-24T21:46:18.900Z,100533.28
2022-10-24T21:48:45.802Z,100533.81
2022-10-24T21:51:14.278Z,100531.34
2022-10-24T21:53:44.399Z,100526.56
2022-10-24T21:56:12.952Z,100528.72
2022-10-24T21:58:39.855Z,100524.34
2022-10-24T22:01:11.310Z,100522.50
2022-10-24T22:03:38.820Z,100509.47
2022-10-24T22:06:06.142Z,100508.31
2022-10-24T22:08:33.066Z,100499.38
2022-10-24T22:11:01.168Z,100486.56
2022-10-24T22:13:28.064Z,100493.25
2022-10-24T22:15:55.336Z,100498.81
2022-10-24T22:18:22.561Z,100505.25
2022-10-24T22:20:49.789Z,100502.94
2022-10-24T22:23:16.758Z,100503.62
2022-10-24T22:25:43.577Z,100514.66
2022-10-24T22:28:10.888Z,100514.03
2022-10-24T22:30:38.257Z,100512.50
2022-10-24T22:33:05.548Z,100499.16
2022-10-24T22:35:32.599Z,100497.97
2022-10-24T22:37:59.597Z,100492.56
2022-10-24T22:40:27.642Z,100484.81
2022-10-24T22:42:54.904Z,100499.25
2022-10-24T22:45:22.108Z,100512.16
2022-10-24T22:48:07.513Z,100528.78
2022-10-24T22:50:38.095Z,100529.22
2022-10-24T22:53:08.242Z,100530.31
2022-10-24T22:55:37.272Z,100537.28
2022-10-24T22:58:04.156Z,100526.41
2022-10-24T23:00:31.233Z,100522.69
2022-10-24T23:03:04.287Z,100537.91
2022-10-24T23:05:36.418Z,100544.69
2022-10-24T23:08:12.762Z,100551.06
2022-10-24T23:10:40.326Z,100563.19
2022-10-24T23:13:07.262Z,100566.09
2022-10-24T23:15:34.161Z,100585.50
2022-10-24T23:18:01.112Z,100579.00
2022-10-24T23:20:30.840Z,100576.41
2022-10-24T23:23:09.425Z,100577.97
2022-10-24T23:25:47.406Z,100586.59
2022-10-24T23:28:17.460Z,100601.69
2022-10-24T23:30:44.399Z,100602.34
2022-10-24T23:33:13.917Z,100601.09
2022-10-24T23:35:41.006Z,100597.28
2022-10-24T23:38:10.747Z,100614.84
2022-10-24T23:40:37.842Z,100605.09
2022-10-24T23:43:05.017Z,100612.00
2022-10-24T23:45:36.943Z,100614.88
2022-10-24T23:48:06.850Z,100613.72
2022-10-24T23:50:36.750Z,100614.25
2022-10-24T23:53:22.419Z,100606.19
2022-10-24T23:55:49.480Z,100613.13
2022-10-24T23:58:16.693Z,100617.47
